Aviation Digital Data Service (ADDS)

Output produced by METARs form (1209 UTC 22 October 2014)
found at http://aviationweather.gov/adds/metars/
 
KBDR 221130Z 2212/2312 03013G20KT P6SM BKN015 BKN035 
     TEMPO 2212/2214 SCT015 BKN035 
     FM221400 02016G24KT P6SM VCSH BKN025 BKN040 
     FM222300 01017G25KT 4SM -RA BR BKN012 
     FM230500 35014G20KT 4SM -RA BR BKN009